Time;durP1;ratioP1;P1;durP2;ratioP2;P2;SDS_P1;SDS_P2;PMS_P1;PMS_P2;Temp;Humidity;BMP_temperature;BMP_pressure;BME280_temperature;BME280_humidity;BME280_pressure;Samples;Min_cycle;Max_cycle;Signal;HPM_P1;HPM_P2
2023/12/27 00:02:53;;;;;;;4.35;1.20;;;;;;;5.73;98.46;100388.41;10417899;28;20053;-69
2023/12/27 00:07:53;;;;;;;5.10;1.25;;;;;;;5.66;98.60;100400.47;10418985;28;20051;-69
2023/12/27 00:12:54;;;;;;;5.10;1.40;;;;;;;4.93;98.70;100297.91;10420286;28;20124;-69
2023/12/27 00:17:55;;;;;;;10.27;1.70;;;;;;;5.24;98.47;100369.84;10417944;28;20604;-69
2023/12/27 00:22:56;;;;;;;2.58;1.10;;;;;;;5.33;98.72;100393.72;10417883;28;20485;-69
2023/12/27 00:27:57;;;;;;;2.95;1.15;;;;;;;4.88;98.51;100342.25;10418769;28;20037;-69
2023/12/27 00:32:58;;;;;;;3.53;1.30;;;;;;;5.06;99.07;100395.13;10418229;28;20445;-70
2023/12/27 00:37:58;;;;;;;6.45;1.58;;;;;;;4.79;99.07;100353.56;10418240;28;20100;-69
2023/12/27 00:42:59;;;;;;;3.78;1.35;;;;;;;4.75;99.15;100339.81;10417560;28;20516;-69
2023/12/27 00:48:00;;;;;;;4.00;1.50;;;;;;;4.88;99.02;100360.69;10417439;28;20572;-69
2023/12/27 00:53:01;;;;;;;5.13;1.85;;;;;;;5.04;99.74;100384.72;10417502;28;20033;-69
2023/12/27 00:58:01;;;;;;;3.15;1.40;;;;;;;4.95;98.78;100382.88;10416706;28;20511;-69
2023/12/27 01:03:02;;;;;;;3.88;1.80;;;;;;;4.99;99.15;100383.44;10416791;28;20151;-69
2023/12/27 01:08:04;;;;;;;5.45;1.70;;;;;;;4.79;99.95;100382.50;10416741;28;20517;-69
2023/12/27 01:13:04;;;;;;;3.05;1.65;;;;;;;4.70;100.00;100375.41;10416582;28;20147;-69
2023/12/27 01:18:05;;;;;;;4.88;1.73;;;;;;;4.83;100.00;100377.81;10416099;28;20216;-69
2023/12/27 01:23:06;;;;;;;5.53;1.88;;;;;;;4.80;100.00;100377.09;10416066;28;20053;-69
2023/12/27 01:28:07;;;;;;;3.33;1.70;;;;;;;4.49;100.00;100323.63;10415068;28;20045;-69
2023/12/27 01:33:08;;;;;;;5.90;1.95;;;;;;;4.86;100.00;100375.75;10414683;28;20561;-69
2023/12/27 01:38:09;;;;;;;7.00;1.85;;;;;;;4.78;100.00;100339.53;10411252;28;20072;-69
2023/12/27 01:43:09;;;;;;;10.25;2.00;;;;;;;4.94;100.00;100323.28;10410250;28;20408;-68
2023/12/27 01:48:10;;;;;;;4.28;1.48;;;;;;;5.57;100.00;100362.59;10413240;28;20049;-69
2023/12/27 01:53:11;;;;;;;6.43;1.77;;;;;;;5.54;99.56;100294.34;10415034;28;20452;-69
2023/12/27 01:58:13;;;;;;;3.03;1.40;;;;;;;6.06;98.94;100337.13;10414443;28;20049;-70
2023/12/27 02:03:14;;;;;;;8.63;1.92;;;;;;;6.24;98.03;100328.53;10414745;28;20416;-69
2023/12/27 02:08:16;;;;;;;4.43;1.60;;;;;;;6.34;97.54;100324.06;10413509;28;20124;-69
2023/12/27 02:13:16;;;;;;;4.13;1.75;;;;;;;6.52;97.33;100332.94;10413753;28;20485;-70
2023/12/27 02:18:19;;;;;;;3.42;1.40;;;;;;;6.59;96.55;100330.56;10413015;28;20049;-73
2023/12/27 02:23:21;;;;;;;5.40;1.63;;;;;;;6.50;95.71;100287.38;10408211;28;20052;-72
2023/12/27 02:28:21;;;;;;;3.20;1.38;;;;;;;6.84;95.15;100322.00;10397715;28;20104;-72
2023/12/27 02:33:22;;;;;;;5.18;1.38;;;;;;;6.86;94.28;100314.78;10371970;28;20100;-71
2023/12/27 02:38:23;;;;;;;8.68;1.50;;;;;;;6.97;93.90;100305.00;10373173;28;20065;-72
2023/12/27 02:43:24;;;;;;;3.78;1.30;;;;;;;7.06;93.18;100314.72;10371938;28;20049;-71
2023/12/27 02:48:25;;;;;;;6.07;1.17;;;;;;;7.09;93.42;100317.88;10372428;28;20133;-72
2023/12/27 02:53:26;;;;;;;5.00;1.45;;;;;;;6.95;92.81;100293.75;10372420;28;20125;-72
2023/12/27 02:58:26;;;;;;;3.33;1.40;;;;;;;6.97;92.64;100303.19;10371435;28;20422;-72
2023/12/27 03:03:27;;;;;;;10.43;1.35;;;;;;;6.83;92.82;100293.09;10371588;28;20038;-72
2023/12/27 03:08:28;;;;;;;8.48;1.30;;;;;;;6.70;93.03;100292.59;10372187;28;20460;-72
2023/12/27 03:13:29;;;;;;;10.35;1.70;;;;;;;6.60;92.83;100287.34;10372382;28;20125;-72
2023/12/27 03:18:29;;;;;;;3.88;1.33;;;;;;;6.59;93.64;100307.63;10372190;28;20073;-70
2023/12/27 03:23:30;;;;;;;3.92;1.40;;;;;;;6.27;93.61;100275.50;10372499;28;20033;-72
2023/12/27 03:28:31;;;;;;;11.02;1.95;;;;;;;6.27;93.69;100281.59;10371839;28;20096;-71
2023/12/27 03:33:32;;;;;;;4.75;1.65;;;;;;;5.97;94.43;100243.06;10366483;28;20038;-71
2023/12/27 03:38:33;;;;;;;5.25;1.70;;;;;;;6.04;94.04;100277.59;10379623;28;20092;-71
2023/12/27 03:43:34;;;;;;;6.65;2.10;;;;;;;5.87;95.23;100256.22;10389780;28;20075;-70
2023/12/27 03:48:35;;;;;;;12.63;2.58;;;;;;;5.93;95.63;100255.69;10420452;28;20061;-67
2023/12/27 03:53:36;;;;;;;5.50;1.58;;;;;;;6.12;95.30;100254.00;10418657;28;20041;-70
2023/12/27 03:58:36;;;;;;;6.78;2.03;;;;;;;6.14;95.05;100252.06;10418682;28;20133;-68
2023/12/27 04:03:37;;;;;;;10.38;2.28;;;;;;;6.22;95.78;100254.78;10418754;28;20045;-68
2023/12/27 04:08:38;;;;;;;7.80;2.13;;;;;;;6.16;95.73;100253.59;10417242;28;20485;-69
2023/12/27 04:13:40;;;;;;;7.22;1.98;;;;;;;6.20;95.85;100250.66;10416123;28;20080;-68
2023/12/27 04:18:41;;;;;;;7.53;2.00;;;;;;;5.89;96.40;100185.72;10418563;28;20493;-70
2023/12/27 04:23:41;;;;;;;18.50;2.17;;;;;;;6.20;96.42;100233.03;10417919;28;20095;-73
2023/12/27 04:28:42;;;;;;;6.43;2.70;;;;;;;6.00;96.57;100186.56;10418385;28;20402;-74
2023/12/27 04:33:43;;;;;;;7.72;3.17;;;;;;;6.43;97.02;100232.66;10417833;28;20041;-68
2023/12/27 04:38:44;;;;;;;7.07;3.15;;;;;;;6.63;96.69;100232.44;10415624;28;20053;-71
2023/12/27 04:43:45;;;;;;;7.00;2.85;;;;;;;6.71;96.37;100242.31;10414377;28;20556;-78
2023/12/27 04:48:45;;;;;;;5.68;2.08;;;;;;;6.17;95.49;100135.72;10414909;28;20041;-69
2023/12/27 04:53:46;;;;;;;11.57;2.85;;;;;;;6.53;95.35;100210.56;10413992;28;20041;-70
2023/12/27 04:58:47;;;;;;;6.03;1.88;;;;;;;6.56;95.99;100231.38;10413952;28;20049;-70
2023/12/27 05:03:50;;;;;;;5.65;2.53;;;;;;;6.47;94.89;100263.91;10416847;28;20044;-70
2023/12/27 05:08:51;;;;;;;17.63;2.65;;;;;;;5.91;95.96;100190.84;10415997;28;20080;-70
2023/12/27 05:13:51;;;;;;;7.72;2.25;;;;;;;6.09;96.53;100228.72;10416913;28;20461;-71
2023/12/27 05:18:52;;;;;;;12.80;3.00;;;;;;;5.98;96.42;100241.25;10416203;28;20045;-71
2023/12/27 05:23:53;;;;;;;7.30;2.85;;;;;;;5.52;96.47;100182.16;10416208;28;20038;-70
2023/12/27 05:28:54;;;;;;;8.77;2.92;;;;;;;6.08;97.11;100264.00;10416060;28;20072;-71
2023/12/27 05:33:54;;;;;;;15.00;3.67;;;;;;;6.06;97.71;100251.91;10415342;28;20120;-70
2023/12/27 05:38:55;;;;;;;13.88;2.72;;;;;;;6.28;97.42;100308.78;10416021;28;20057;-69
2023/12/27 05:43:56;;;;;;;4.82;2.20;;;;;;;6.17;97.38;100323.00;10415173;28;20038;-71
2023/12/27 05:48:57;;;;;;;9.38;2.30;;;;;;;6.28;97.44;100314.06;10415094;28;20071;-70
2023/12/27 05:53:58;;;;;;;10.00;2.38;;;;;;;6.46;96.69;100340.56;10415357;28;20033;-71
2023/12/27 05:58:58;;;;;;;7.38;2.58;;;;;;;6.68;95.83;100340.25;10413464;28;20045;-70
2023/12/27 06:04:00;;;;;;;6.43;2.33;;;;;;;6.89;95.36;100355.91;10414511;28;20555;-70
2023/12/27 06:09:01;;;;;;;5.25;2.25;;;;;;;7.05;95.06;100331.50;10414449;28;20037;-71
2023/12/27 06:14:01;;;;;;;5.38;2.17;;;;;;;6.99;94.51;100326.81;10413641;28;20425;-72
2023/12/27 06:19:02;;;;;;;3.90;1.88;;;;;;;7.22;95.06;100314.06;10414570;28;20041;-69
2023/12/27 06:24:03;;;;;;;4.18;2.03;;;;;;;7.60;93.57;100301.56;10413884;28;20076;-69
2023/12/27 06:29:04;;;;;;;5.95;2.20;;;;;;;7.63;91.71;100302.13;10413239;28;20044;-69
2023/12/27 06:34:06;;;;;;;5.82;1.88;;;;;;;7.97;91.53;100304.09;10413823;28;20041;-69
2023/12/27 06:39:07;;;;;;;9.82;2.28;;;;;;;7.98;91.51;100274.00;10414423;28;20061;-69
2023/12/27 06:44:08;;;;;;;6.30;2.25;;;;;;;8.06;91.22;100326.16;10412658;28;20041;-69
2023/12/27 06:49:08;;;;;;;11.80;2.47;;;;;;;8.10;90.91;100332.81;10413220;28;20048;-69
2023/12/27 06:54:09;;;;;;;9.02;2.53;;;;;;;8.15;90.92;100270.50;10413379;28;20507;-69
2023/12/27 06:59:10;;;;;;;6.55;2.20;;;;;;;8.05;90.58;100243.31;10412942;28;20053;-69
2023/12/27 07:04:11;;;;;;;5.80;2.10;;;;;;;8.69;89.41;100326.00;10412302;28;20044;-69
2023/12/27 07:09:12;;;;;;;5.30;2.00;;;;;;;9.07;87.73;100308.81;10414845;28;20152;-70
2023/12/27 07:14:13;;;;;;;9.50;1.90;;;;;;;9.33;86.07;100278.75;10421659;28;20048;-70
2023/12/27 07:19:13;;;;;;;5.15;1.90;;;;;;;9.21;86.06;100266.78;10420437;28;20049;-71
2023/12/27 07:24:14;;;;;;;5.72;2.42;;;;;;;9.27;86.35;100288.19;10420804;28;20044;-69
2023/12/27 07:29:15;;;;;;;9.43;2.25;;;;;;;9.42;84.98;100287.56;10419979;28;20071;-70
2023/12/27 07:34:16;;;;;;;8.48;2.50;;;;;;;9.62;84.45;100243.84;10420244;28;20037;-70
2023/12/27 07:39:17;;;;;;;15.48;2.38;;;;;;;9.74;84.46;100258.44;10419713;28;20055;-70
2023/12/27 07:44:17;;;;;;;7.97;2.17;;;;;;;9.65;85.05;100248.00;10420141;28;20420;-70
2023/12/27 07:49:18;;;;;;;4.65;2.22;;;;;;;9.79;84.79;100250.84;10419333;28;20057;-71
2023/12/27 07:54:19;;;;;;;26.00;4.20;;;;;;;9.50;83.98;100139.91;10419015;28;20045;-71
2023/12/27 07:59:20;;;;;;;27.00;17.48;;;;;;;9.52;84.25;100102.66;10418879;28;20075;-72
2023/12/27 08:04:21;;;;;;;6.50;2.88;;;;;;;10.50;82.77;100201.50;10419476;28;20132;-70
2023/12/27 08:09:22;;;;;;;7.45;2.28;;;;;;;11.03;80.97;100177.84;10419438;28;20065;-70
2023/12/27 08:14:23;;;;;;;6.68;1.95;;;;;;;11.40;79.49;100182.44;10418354;28;20045;-71
2023/12/27 08:19:24;;;;;;;3.50;1.70;;;;;;;11.71;78.47;100205.47;10418326;28;20516;-71
2023/12/27 08:24:24;;;;;;;6.68;1.95;;;;;;;12.00;77.93;100193.28;10418675;28;20507;-71
2023/12/27 08:29:25;;;;;;;5.75;2.38;;;;;;;12.28;77.28;100183.66;10417648;28;20080;-72
2023/12/27 08:34:26;;;;;;;4.32;1.67;;;;;;;12.60;75.31;100175.50;10417401;28;20030;-71
2023/12/27 08:39:28;;;;;;;4.03;1.50;;;;;;;12.88;73.63;100192.44;10417724;28;20045;-71
2023/12/27 08:44:29;;;;;;;2.92;1.50;;;;;;;13.09;72.34;100180.19;10417691;28;20444;-72
2023/12/27 08:49:29;;;;;;;4.72;1.60;;;;;;;12.78;71.40;100120.78;10417700;28;20037;-71
2023/12/27 08:54:30;;;;;;;3.30;1.67;;;;;;;13.24;71.26;100179.09;10416660;28;20053;-71
2023/12/27 08:59:31;;;;;;;9.50;1.67;;;;;;;13.63;70.28;100163.69;10416536;28;20037;-71
2023/12/27 09:04:32;;;;;;;6.78;1.83;;;;;;;13.37;69.38;100154.47;10416407;28;20038;-72
2023/12/27 09:09:32;;;;;;;4.70;1.65;;;;;;;12.87;70.59;100088.69;10417315;28;20045;-72
2023/12/27 09:14:34;;;;;;;4.07;1.23;;;;;;;12.95;70.97;100144.53;10416627;28;20090;-71
2023/12/27 09:19:34;;;;;;;4.65;1.80;;;;;;;12.77;70.10;100131.59;10415793;28;20052;-71
2023/12/27 09:24:35;;;;;;;6.60;1.75;;;;;;;12.76;70.76;100141.44;10416296;28;20037;-71
2023/12/27 09:29:36;;;;;;;15.55;4.15;;;;;;;12.74;71.29;100132.84;10416179;28;20068;-71
2023/12/27 09:34:37;;;;;;;17.92;6.47;;;;;;;12.69;71.39;100108.56;10415521;28;20516;-71
2023/12/27 09:39:38;;;;;;;26.20;8.30;;;;;;;12.58;71.63;100103.72;10414855;28;20045;-71
2023/12/27 09:44:40;;;;;;;26.23;10.40;;;;;;;12.57;72.32;100100.22;10415379;28;20478;-71
2023/12/27 09:49:41;;;;;;;31.67;11.98;;;;;;;12.38;72.93;100073.34;10415465;28;20044;-71
2023/12/27 09:54:42;;;;;;;26.75;10.82;;;;;;;12.36;73.42;100065.56;10414952;28;20099;-71
2023/12/27 09:59:46;;;;;;;35.63;13.77;;;;;;;12.25;73.93;100055.38;10414655;28;20386;-71
2023/12/27 10:04:55;;;;;;;24.52;6.60;;;;;;;12.20;76.00;100047.09;10414692;28;20049;-71
2023/12/27 10:09:56;;;;;;;10.05;3.40;;;;;;;12.10;75.88;100053.53;10414512;28;20041;-72
2023/12/27 10:14:57;;;;;;;5.95;1.73;;;;;;;11.94;76.31;100011.16;10414001;28;20120;-70
2023/12/27 10:19:57;;;;;;;14.75;4.57;;;;;;;12.22;76.63;100021.94;10413902;28;20049;-70
2023/12/27 10:24:59;;;;;;;10.63;2.00;;;;;;;12.36;77.38;100025.59;10413920;28;20041;-70
2023/12/27 10:30:03;;;;;;;10.63;1.83;;;;;;;12.48;77.88;100020.63;10413316;28;20053;-70
2023/12/27 10:35:04;;;;;;;9.23;1.83;;;;;;;12.64;77.94;100009.69;10413397;28;20057;-71
2023/12/27 10:40:06;;;;;;;7.43;1.00;;;;;;;12.69;78.22;99969.16;10413834;28;20529;-71
2023/12/27 10:45:07;;;;;;;7.07;1.40;;;;;;;13.21;78.21;100011.44;10412849;28;20489;-71
2023/12/27 10:50:12;;;;;;;4.85;1.10;;;;;;;13.23;77.74;99941.91;10412684;28;20449;-70
2023/12/27 10:55:19;;;;;;;7.28;1.20;;;;;;;13.79;76.83;99976.56;10413110;28;20053;-71
2023/12/27 11:00:21;;;;;;;3.63;1.20;;;;;;;13.87;75.66;99973.69;10412591;28;20124;-71
2023/12/27 11:05:24;;;;;;;8.70;1.08;;;;;;;13.88;75.56;99964.69;10412771;28;20525;-70
2023/12/27 11:10:29;;;;;;;6.07;1.02;;;;;;;13.95;76.34;99959.38;10412931;28;20045;-71
2023/12/27 11:15:32;;;;;;;6.15;1.60;;;;;;;14.05;76.63;99948.31;10412786;28;20080;-71
2023/12/27 11:20:34;;;;;;;10.65;2.75;;;;;;;14.10;76.70;99930.66;10412108;28;20041;-72
2023/12/27 11:25:35;;;;;;;6.25;2.17;;;;;;;14.18;76.88;99932.34;10412685;28;20038;-70
2023/12/27 11:30:36;;;;;;;9.80;2.67;;;;;;;14.16;76.24;99918.34;10413062;28;20041;-71
2023/12/27 11:35:37;;;;;;;2.70;1.02;;;;;;;14.23;75.46;99921.84;10412113;28;20184;-72
2023/12/27 11:40:45;;;;;;;7.45;0.98;;;;;;;14.19;74.61;99909.13;10412797;28;20081;-71
2023/12/27 11:46:01;;;;;;;6.07;1.40;;;;;;;14.01;75.56;99904.34;10411680;28;20041;-72
2023/12/27 11:51:02;;;;;;;5.22;1.25;;;;;;;13.93;76.21;99892.78;10411647;28;20129;-70
2023/12/27 11:56:04;;;;;;;7.43;1.55;;;;;;;13.77;76.48;99887.81;10413515;28;20046;-71
2023/12/27 12:01:36;;;;;;;14.52;2.30;;;;;;;13.50;76.89;99856.72;10419724;28;20041;-70
2023/12/27 12:06:55;;;;;;;7.10;1.95;;;;;;;13.58;79.06;99908.09;10418327;28;20122;-71
2023/12/27 12:11:56;;;;;;;9.80;3.00;;;;;;;13.06;79.06;99849.91;10414857;28;20033;-70
2023/12/27 12:16:57;;;;;;;14.23;5.40;;;;;;;13.28;80.00;99909.34;10417503;28;20444;-71
2023/12/27 12:21:58;;;;;;;10.95;4.47;;;;;;;12.80;80.94;99864.69;10416297;28;20041;-71
2023/12/27 12:27:00;;;;;;;5.88;1.50;;;;;;;13.02;81.39;99906.28;10417347;28;20042;-70
2023/12/27 12:32:01;;;;;;;3.83;1.20;;;;;;;13.00;81.19;99908.31;10418235;28;20520;-71
2023/12/27 12:37:02;;;;;;;3.22;1.25;;;;;;;12.78;81.63;99907.53;10417898;28;20049;-71
2023/12/27 12:42:03;;;;;;;74.25;5.13;;;;;;;12.75;82.28;99913.25;10418287;28;20445;-71
2023/12/27 12:47:04;;;;;;;41.05;3.58;;;;;;;12.62;82.93;99913.13;10417665;28;20049;-71
2023/12/27 12:52:06;;;;;;;12.38;1.40;;;;;;;12.50;82.76;99912.84;10417636;28;20038;-71
2023/12/27 12:57:07;;;;;;;18.50;1.60;;;;;;;12.11;83.66;99838.69;10416866;28;20501;-72
2023/12/27 13:02:08;;;;;;;4.57;1.33;;;;;;;11.92;84.04;99845.47;10417534;28;20037;-72
2023/12/27 13:07:10;;;;;;;40.95;2.83;;;;;;;11.96;85.37;99907.97;10416651;28;20046;-72
2023/12/27 13:12:10;;;;;;;10.68;1.88;;;;;;;11.94;85.11;99901.19;10416247;28;20519;-72
2023/12/27 13:17:11;;;;;;;12.73;2.33;;;;;;;11.94;85.15;99901.19;10410723;28;20041;-72
2023/12/27 13:22:12;;;;;;;5.57;1.30;;;;;;;11.88;85.46;99889.47;10412877;28;20440;-72
2023/12/27 13:27:13;;;;;;;15.07;3.65;;;;;;;11.80;85.22;99887.69;10415988;28;20079;-72
2023/12/27 13:32:13;;;;;;;7.63;2.03;;;;;;;11.90;84.94;99922.03;10415757;28;20450;-71
2023/12/27 13:37:16;;;;;;;25.75;3.20;;;;;;;11.73;85.55;99917.91;10414977;28;20057;-72
2023/12/27 13:42:17;;;;;;;19.73;4.18;;;;;;;11.60;86.33;99926.53;10414334;28;20079;-71
2023/12/27 13:47:17;;;;;;;27.45;8.57;;;;;;;11.35;86.83;99886.94;10414040;28;20053;-70
2023/12/27 13:52:18;;;;;;;18.17;6.95;;;;;;;11.06;88.67;99879.78;10413892;28;20053;-73
2023/12/27 13:57:19;;;;;;;15.95;8.52;;;;;;;11.03;89.75;99909.38;10415387;28;20076;-72
2023/12/27 14:02:20;;;;;;;6.97;3.13;;;;;;;10.65;89.16;99826.22;10413349;28;20048;-74
2023/12/27 14:07:21;;;;;;;12.88;3.53;;;;;;;11.17;89.35;99921.84;10414388;28;20045;-72
2023/12/27 14:12:27;;;;;;;28.48;21.20;;;;;;;11.11;89.33;99896.00;10413358;28;20048;-72
2023/12/27 14:17:28;;;;;;;10.50;7.20;;;;;;;11.23;89.65;99896.38;10412788;28;20044;-71
2023/12/27 14:22:29;;;;;;;24.67;11.65;;;;;;;11.04;89.81;99859.69;10413253;28;20045;-71
2023/12/27 14:27:29;;;;;;;24.33;16.02;;;;;;;10.88;90.35;99864.16;10412431;28;20048;-71
2023/12/27 14:32:30;;;;;;;36.00;23.33;;;;;;;10.45;90.76;99826.75;10411674;28;20041;-71
2023/12/27 14:37:31;;;;;;;14.27;9.85;;;;;;;10.67;91.41;99846.28;10409001;28;20064;-70
2023/12/27 14:42:34;;;;;;;12.48;7.07;;;;;;;10.77;91.57;99842.53;10396096;28;20052;-70
2023/12/27 14:47:35;;;;;;;13.65;4.30;;;;;;;10.75;91.85;99840.06;10413269;28;20378;-72
2023/12/27 14:52:37;;;;;;;15.05;5.28;;;;;;;10.62;92.26;99834.53;10413316;28;20497;-70
2023/12/27 14:57:38;;;;;;;121.82;74.93;;;;;;;10.68;92.95;99825.88;10413440;28;20044;-70
2023/12/27 15:02:39;;;;;;;26.83;13.52;;;;;;;10.66;92.98;99814.59;10413250;28;20857;-70
2023/12/27 15:07:40;;;;;;;38.97;21.80;;;;;;;10.49;93.13;99805.94;10410340;28;20048;-71
2023/12/27 15:12:41;;;;;;;29.65;11.55;;;;;;;10.35;94.08;99823.53;10412610;28;20584;-71
2023/12/27 15:17:42;;;;;;;18.17;8.23;;;;;;;9.82;94.58;99764.19;10412494;28;20099;-71
2023/12/27 15:22:43;;;;;;;14.45;5.22;;;;;;;10.19;95.53;99827.09;10412724;28;20090;-70
2023/12/27 15:27:44;;;;;;;6.15;3.88;;;;;;;10.18;95.58;99800.72;10412587;28;20438;-70
2023/12/27 15:32:46;;;;;;;16.83;4.15;;;;;;;9.62;95.76;99699.38;10418759;28;20060;-70
2023/12/27 15:37:48;;;;;;;7.78;3.20;;;;;;;9.99;96.01;99813.50;10420897;28;20085;-70
2023/12/27 15:42:49;;;;;;;7.72;3.33;;;;;;;9.89;96.66;99823.50;10419521;28;20072;-70
2023/12/27 15:47:50;;;;;;;13.00;3.67;;;;;;;9.78;96.66;99879.59;10419278;28;20096;-70
2023/12/27 15:52:50;;;;;;;9.20;3.30;;;;;;;9.68;96.71;99855.13;10418703;28;20409;-72
2023/12/27 15:57:51;;;;;;;24.55;15.85;;;;;;;9.66;96.36;99780.22;10420825;28;20409;-70
2023/12/27 16:02:52;;;;;;;13.63;7.82;;;;;;;10.15;96.53;99830.28;10419787;28;20041;-70
2023/12/27 16:07:53;;;;;;;18.02;11.98;;;;;;;10.14;96.60;99887.84;10417995;28;20614;-72
2023/12/27 16:12:54;;;;;;;8.77;3.88;;;;;;;10.14;97.06;99906.44;10418426;28;20049;-70
2023/12/27 16:17:59;;;;;;;8.85;3.13;;;;;;;9.79;97.02;99821.06;10419609;28;20049;-70
2023/12/27 16:23:00;;;;;;;9.10;3.38;;;;;;;10.10;97.31;99885.72;10416793;28;20072;-72
2023/12/27 16:28:01;;;;;;;7.05;3.30;;;;;;;10.10;97.71;99899.00;10418348;28;20077;-71
2023/12/27 16:33:02;;;;;;;15.13;7.20;;;;;;;9.93;98.87;99896.44;10416931;28;20456;-71
2023/12/27 16:38:02;;;;;;;16.25;8.80;;;;;;;9.98;99.38;99904.69;10418059;28;20487;-70
2023/12/27 16:43:03;;;;;;;11.88;7.60;;;;;;;9.91;100.00;99927.63;10415841;28;20152;-72
2023/12/27 16:48:05;;;;;;;16.45;6.25;;;;;;;9.60;100.00;99896.63;10414888;28;20037;-73
2023/12/27 16:53:05;;;;;;;10.93;5.15;;;;;;;9.64;100.00;99890.97;10415852;28;20485;-72
2023/12/27 16:58:08;;;;;;;9.15;4.15;;;;;;;9.46;100.00;99832.88;10414899;28;20051;-73
2023/12/27 17:03:10;;;;;;;9.57;4.70;;;;;;;9.34;100.00;99819.19;10417293;28;20413;-72
2023/12/27 17:08:11;;;;;;;9.65;4.72;;;;;;;9.01;100.00;99761.00;10414426;28;20081;-72
2023/12/27 17:13:14;;;;;;;11.85;4.85;;;;;;;9.17;100.00;99772.53;10415784;28;20049;-73
2023/12/27 17:18:17;;;;;;;12.17;4.33;;;;;;;9.08;100.00;99743.41;10409124;28;20056;-72
2023/12/27 17:23:19;;;;;;;7.35;3.50;;;;;;;9.12;100.00;99763.28;10415671;28;20041;-72
2023/12/27 17:28:20;;;;;;;6.50;3.60;;;;;;;9.24;100.00;99784.91;10416191;28;20140;-72
2023/12/27 17:33:21;;;;;;;6.90;3.33;;;;;;;9.17;100.00;99823.72;10412892;28;20497;-71
2023/12/27 17:38:21;;;;;;;5.72;3.53;;;;;;;9.16;100.00;99829.19;10414937;28;20064;-72
2023/12/27 17:43:22;;;;;;;9.20;3.53;;;;;;;9.41;100.00;99837.88;10413723;28;20041;-72
2023/12/27 17:48:23;;;;;;;7.63;3.33;;;;;;;9.37;100.00;99843.50;10412881;28;20052;-71
2023/12/27 17:53:24;;;;;;;13.40;5.70;;;;;;;9.09;100.00;99829.88;10411206;28;20060;-70
2023/12/27 17:58:26;;;;;;;7.93;3.53;;;;;;;8.95;100.00;99806.75;10414682;28;20663;-71
2023/12/27 18:03:27;;;;;;;5.82;2.63;;;;;;;9.41;100.00;99865.19;10412052;28;20079;-72
2023/12/27 18:08:28;;;;;;;4.75;2.58;;;;;;;9.55;100.00;99856.53;10414131;28;20069;-71
2023/12/27 18:13:29;;;;;;;7.20;2.67;;;;;;;9.54;100.00;99844.28;10413779;28;20590;-71
2023/12/27 18:18:30;;;;;;;6.25;2.95;;;;;;;9.73;100.00;99852.78;10414168;28;20103;-71
2023/12/27 18:23:31;;;;;;;5.70;3.22;;;;;;;9.68;100.00;99852.47;10413352;28;20045;-72
2023/12/27 18:28:32;;;;;;;5.70;2.70;;;;;;;9.69;100.00;99872.69;10414123;28;20501;-72
2023/12/27 18:33:33;;;;;;;8.20;3.20;;;;;;;9.38;100.00;99836.38;10412844;28;20069;-71
2023/12/27 18:38:35;;;;;;;5.13;2.10;;;;;;;9.83;100.00;99886.03;10414118;28;20068;-71
2023/12/27 18:43:36;;;;;;;7.88;2.38;;;;;;;9.85;100.00;99893.00;10413414;28;20045;-71
2023/12/27 18:48:37;;;;;;;6.75;2.20;;;;;;;9.82;100.00;99924.19;10413611;28;20440;-72
2023/12/27 18:53:38;;;;;;;7.38;3.20;;;;;;;9.78;100.00;99909.63;10413277;28;20053;-72
2023/12/27 18:58:38;;;;;;;6.28;2.92;;;;;;;9.75;100.00;99909.13;10412399;28;20081;-71
2023/12/27 19:03:41;;;;;;;5.78;3.10;;;;;;;9.45;100.00;99868.31;10412809;28;20041;-69
2023/12/27 19:08:41;;;;;;;5.88;2.67;;;;;;;9.66;100.00;99841.19;10418427;28;20099;-71
2023/12/27 19:13:42;;;;;;;7.43;3.58;;;;;;;10.95;100.00;99914.78;10421886;28;20124;-72
2023/12/27 19:18:44;;;;;;;9.93;3.83;;;;;;;11.25;100.00;99942.22;10418700;28;20079;-71
2023/12/27 19:23:44;;;;;;;11.95;4.30;;;;;;;11.35;100.00;99955.25;10420496;28;20041;-71
2023/12/27 19:28:47;;;;;;;5.50;2.92;;;;;;;11.14;100.00;100057.81;10419508;28;20041;-69
2023/12/27 19:33:48;;;;;;;2.72;1.27;;;;;;;10.04;100.00;100043.81;10418031;28;20106;-71
2023/12/27 19:38:49;;;;;;;3.78;1.33;;;;;;;9.64;100.00;100093.34;10419927;28;20057;-73
2023/12/27 19:43:50;;;;;;;5.13;1.30;;;;;;;9.22;100.00;100067.84;10418505;28;20056;-71
2023/12/27 19:48:51;;;;;;;4.82;1.20;;;;;;;8.61;100.00;99987.03;10418197;28;20111;-71
2023/12/27 19:53:51;;;;;;;3.42;1.20;;;;;;;8.99;100.00;100046.47;10419118;28;20053;-72
2023/12/27 19:58:52;;;;;;;4.78;1.25;;;;;;;8.68;100.00;100007.41;10420073;28;20134;-71
2023/12/27 20:03:53;;;;;;;4.82;1.40;;;;;;;8.61;100.00;99997.59;10418722;28;20038;-70
2023/12/27 20:08:54;;;;;;;5.65;1.40;;;;;;;8.42;100.00;100004.88;10419205;28;20625;-72
2023/12/27 20:13:55;;;;;;;3.25;1.10;;;;;;;8.53;100.00;100046.09;10418924;28;20472;-71
2023/12/27 20:18:56;;;;;;;3.05;1.00;;;;;;;8.60;100.00;100068.28;10418151;28;20049;-71
2023/12/27 20:23:57;;;;;;;6.22;1.17;;;;;;;8.73;100.00;100077.56;10418688;28;20496;-70
2023/12/27 20:28:58;;;;;;;4.45;1.13;;;;;;;8.63;100.00;100061.84;10419110;28;20497;-71
2023/12/27 20:33:59;;;;;;;2.22;0.93;;;;;;;8.67;100.00;100109.03;10417574;28;20041;-70
2023/12/27 20:39:00;;;;;;;3.08;1.05;;;;;;;8.46;100.00;100063.59;10417645;28;20085;-70
2023/12/27 20:44:01;;;;;;;4.05;1.20;;;;;;;8.68;100.00;100109.84;10417606;28;20045;-70
2023/12/27 20:49:02;;;;;;;2.58;1.10;;;;;;;8.58;100.00;100119.72;10417638;28;20050;-70
2023/12/27 20:54:03;;;;;;;5.35;1.45;;;;;;;8.72;99.74;100129.72;10416695;28;20037;-70
2023/12/27 20:59:07;;;;;;;4.03;1.20;;;;;;;8.58;97.11;100119.72;10417344;28;20111;-71
2023/12/27 21:04:09;;;;;;;2.13;0.87;;;;;;;8.76;94.62;100132.84;10416679;28;20049;-70
2023/12/27 21:09:09;;;;;;;2.00;0.98;;;;;;;8.67;94.15;100143.44;10417019;28;20163;-70
2023/12/27 21:14:11;;;;;;;3.40;1.10;;;;;;;8.60;93.11;100147.72;10416065;28;20561;-70
2023/12/27 21:19:13;;;;;;;2.60;1.00;;;;;;;8.63;92.72;100171.22;10416588;28;20045;-70
2023/12/27 21:24:14;;;;;;;4.55;1.35;;;;;;;8.51;90.54;100132.78;10414993;28;20045;-71
2023/12/27 21:29:15;;;;;;;2.97;1.10;;;;;;;8.27;88.00;100082.38;10415963;28;20493;-71
2023/12/27 21:34:15;;;;;;;2.67;1.10;;;;;;;8.45;88.34;100163.38;10415203;28;20041;-72
2023/12/27 21:39:16;;;;;;;4.45;1.45;;;;;;;8.16;89.22;100149.63;10415782;28;20053;-72
2023/12/27 21:44:17;;;;;;;2.92;1.30;;;;;;;7.95;90.00;100127.00;10415006;28;20067;-72
2023/12/27 21:49:18;;;;;;;2.85;1.30;;;;;;;8.25;91.13;100185.72;10414754;28;20139;-71
2023/12/27 21:54:19;;;;;;;3.88;1.30;;;;;;;8.12;91.98;100172.09;10415105;28;20529;-72
2023/12/27 21:59:20;;;;;;;4.70;1.73;;;;;;;8.23;92.26;100206.25;10414466;28;20049;-72
2023/12/27 22:04:21;;;;;;;5.68;1.88;;;;;;;8.25;92.28;100217.47;10414097;28;20489;-74
2023/12/27 22:09:22;;;;;;;3.78;1.88;;;;;;;8.17;92.55;100212.16;10414086;28;20063;-72
2023/12/27 22:14:22;;;;;;;4.80;2.03;;;;;;;8.13;93.78;100234.59;10414371;28;20038;-72
2023/12/27 22:19:23;;;;;;;4.03;1.83;;;;;;;8.10;94.67;100245.50;10414170;28;20412;-72
2023/12/27 22:24:24;;;;;;;4.32;1.65;;;;;;;8.04;95.32;100235.53;10414142;28;20087;-72
2023/12/27 22:29:25;;;;;;;3.40;1.77;;;;;;;7.90;95.68;100218.41;10414380;28;20038;-72
2023/12/27 22:34:25;;;;;;;4.85;1.70;;;;;;;7.94;95.62;100231.16;10413001;28;20045;-72
2023/12/27 22:39:26;;;;;;;5.13;1.58;;;;;;;7.64;94.74;100182.16;10413064;28;20056;-72
2023/12/27 22:44:27;;;;;;;3.42;1.48;;;;;;;7.64;93.68;100191.94;10413533;28;20041;-72
2023/12/27 22:49:29;;;;;;;3.47;1.63;;;;;;;7.90;93.26;100245.69;10412511;28;20041;-72
2023/12/27 22:54:30;;;;;;;4.00;1.55;;;;;;;7.91;92.60;100262.38;10413178;28;20119;-72
2023/12/27 22:59:31;;;;;;;2.20;1.23;;;;;;;7.58;92.05;100211.88;10413192;28;20041;-72
2023/12/27 23:04:32;;;;;;;3.83;1.70;;;;;;;7.61;92.52;100247.75;10413134;28;20041;-72
2023/12/27 23:09:34;;;;;;;3.65;1.55;;;;;;;7.79;93.53;100301.44;10413394;28;20086;-72
2023/12/27 23:14:34;;;;;;;3.85;1.50;;;;;;;7.79;92.86;100314.69;10412299;28;20478;-72